Redondo, Valles Caldera, New Mexico Weather observations

Data are for 10 minute period ending at time listed.
 Day   Time   Solar   Ave.   Ave.  Ave.  Vector  Max.   Baro.   Total    
  of    of     Rad.   Air    Rel.  Wind   Wind   Wind  Press.  Precip.   
Year   Day            Temp.  Hum.  Speed  Dir.   Gust                    
2017   (MST)  Kw/m2    F      %     mph   deg.    mph    mb.     in.     
-------------------------------------------------------------------------
 177    6:30   0.28   57.2    51    1.1   295     4.2   698.0    0.00 
 177    6:40   0.31   59.2    48    1.5   298     3.6   698.1    0.00 
 177    6:50   0.18   55.9    54    2.4   221     6.6   698.1    0.00 
 177    7:00   0.20   53.7    60    1.9    84     4.8   698.1    0.00 
 177    7:10   0.20   53.5    57    2.0   139     5.4   698.0    0.00 
 177    7:20   0.23   54.2    54    3.1   166     6.6   697.9    0.00 
 177    7:30   0.29   54.6    53    3.4   163     7.2   697.9    0.00 
 177    7:40   0.47   56.2    50    3.2   144     7.8   697.8    0.00 
 177    7:50   0.60   58.8    47    3.9   185    10.2   697.7    0.00 
 177    8:00   0.66   60.1    51    3.3   248     7.2   697.8    0.00 
 177    8:10   0.43   59.0    54    3.0   242     7.8   697.8    0.00 
 177    8:20   0.66   58.6    56    3.6   231     7.2   697.8    0.00 
 177    8:30   0.69   59.0    54    3.4   227     7.2   697.8    0.00 
 177    8:40   0.64   58.2    47    4.2   185     8.4   697.9    0.00 
 177    8:50   0.80   58.9    46    4.4   196     9.6   697.9    0.00 
 177    9:00   0.63   59.1    46    3.6   221     7.8   697.8    0.00 
 177    9:10   0.78   59.5    42    3.8   192     7.8   697.7    0.00 
 177    9:20   0.79   61.0    44    3.4   210     7.2   697.7    0.00 
 177    9:30   0.82   60.0    46    4.5   209     9.6   697.8    0.00 
 177    9:40   0.84   59.6    45    4.6   188     9.0   697.8    0.00 
 177    9:50   0.87   60.2    43    3.1   179     7.2   697.8    0.00 
 177   10:00   0.92   60.4    43    4.0   203     7.8   697.8    0.00 
 177   10:10   0.88   62.5    40    3.8   243     7.2   697.9    0.00 
 177   10:20   0.92   62.3    43    3.6   232     6.0   697.9    0.00 
 177   10:30   0.81   63.8    40    3.5   262     6.6   697.9    0.00 
 177   10:40   0.94   63.3    43    3.9   243     8.4   697.9    0.00 
 177   10:50   0.99   65.8    39    4.0   276     7.8   698.0    0.00 
 177   11:00   1.00   65.5    36    3.5   244     7.2   698.0    0.00 
 177   11:10   1.01   64.5    39    3.5   201     7.8   697.8    0.00 
 177   11:20   1.08   63.8    40    5.0   227     8.4   697.9    0.00 
 177   11:30   0.90   63.9    40    3.6   247     8.4   697.9    0.00 
 177   11:40   1.17   65.0    40    4.0   223     9.6   697.8    0.00 
 177   11:50   1.14   65.7    39    4.0   162    10.8   697.7    0.00 
 177   12:00   0.59   64.1    42    4.7   184    10.8   697.6    0.00 
 177   12:10   0.86   63.3    44    5.4   228    10.8   697.5    0.00 
 177   12:20   0.62   63.2    46    5.1   219    10.8   697.4    0.00 
 177   12:30   0.44   61.4    50    5.6   185    12.5   697.3    0.00 
 177   12:40   0.53   60.6    52    4.6   191     8.4   697.3    0.00 
 177   12:50   1.01   62.2    50    3.8   129     7.8   697.4    0.00 
 177   13:00   0.95   64.2    48    3.7   106     9.0   697.4    0.00 
 177   13:10   0.98   64.2    45    3.2   167     7.8   697.2    0.00 
 177   13:20   1.13   65.2    42    4.5   143     9.0   697.1    0.00 
 177   13:30   0.73   63.7    54    6.4   120    11.9   697.0    0.00 
 177   13:40   0.16   60.7    51    5.9   113    14.3   697.0    0.00 
 177   13:50   0.08   59.6    51    4.4   155    10.2   696.8    0.00 
 177   14:00   0.09   58.5    58    2.1   208    10.8   696.9    0.01 
 177   14:10   0.17   58.2    63    2.9    90     8.4   696.5    0.00 
 177   14:20   0.12   56.3    69    4.6    93    10.8   696.3    0.00 
 177   14:30   0.04   55.0    71    4.2    77    11.9   696.4    0.00 
 177   14:40   0.09   53.8    78    5.8   110    10.2   696.2    0.01 
 177   14:50   0.05   53.0    79    4.2   102     9.0   696.4    0.03 
 177   15:00   0.04   51.8    84    4.0   101     7.2   696.3    0.03 
 177   15:10   0.06   50.9    87    4.2    99     9.0   696.2    0.01 
 177   15:20   0.11   51.1    82    3.8   100     9.6   696.2    0.00 
 177   15:30   0.20   51.8    76    4.2    77    10.2   696.3    0.00 
 177   15:40   0.23   52.6    74    3.2    85     7.8   696.4    0.00 
 177   15:50   0.08   52.7    69    3.2    95     7.8   696.3    0.00 
 177   16:00   0.10   51.4    70    3.0    85    10.2   696.3    0.01 
 177   16:10   0.07   50.4    73    3.1    89     8.4   696.3    0.00 
 177   16:20   0.38   51.0    67    5.1    88     9.6   696.3    0.00 
 177   16:30   0.72   55.5    59    4.4    73     8.4   696.1    0.00 
 177   16:40   0.60   57.3    52    4.2    66     8.4   696.0    0.00 
 177   16:50   0.12   55.9    51    1.5    60     5.4   696.0    0.00 
 177   17:00   0.05   54.6    57    1.2    46     4.2   696.0    0.00 
 177   17:10   0.03   54.8    57    0.5   345     3.6   696.0    0.00 
 177   17:20   0.02   54.7    62    1.3   143     4.2   696.1    0.00 
 177   17:30   0.07   52.5    64    4.7   110    11.3   696.2    0.00 
 177   17:40   0.30   52.8    63    3.7   115     8.4   696.1    0.00 
 177   17:50   0.25   57.6    51    2.6   131     7.8   696.0    0.00 
 177   18:00   0.26   60.7    44    1.1   167     4.8   695.9    0.00 
 177   18:10   0.05   57.7    50    1.7   140     5.4   695.9    0.00 
 177   18:20   0.11   55.4    50    2.3   137     4.8   696.0    0.00 
 177   18:30   0.08   55.9    50    0.8   122     4.2   696.1    0.00 
 177   18:40   0.07   55.0    52    3.8   115     9.6   696.0    0.00 
 177   18:50   0.07   53.4    56    4.9   112    10.8   695.9    0.00 
 177   19:00   0.03   52.4    57    4.7   118    10.2   695.9    0.00 
 177   19:10   0.02   51.9    59    1.2   102     3.6   696.0    0.00 
 177   19:20   0.01   51.1    59    0.0     0     0.0   696.0    0.00 
 177   19:30   0.00   50.6    58    0.0     0     0.0   696.0    0.00 
 177   19:40   0.00   50.2    57    0.0     0     0.0   696.0    0.00 
 177   19:50   0.00   50.2    54    0.0     0     0.0   696.0    0.00 
 177   20:00   0.00   49.9    55    0.0     0     0.0   696.1    0.00 
 177   20:10   0.00   49.2    56    0.0     0     0.0   696.2    0.00 
 177   20:20   0.00   48.8    57    0.0     0     0.0   696.2    0.00 
 177   20:30   0.00   49.0    56    0.0     0     0.0   696.3    0.00 
 177   20:40   0.00   49.6    53    0.0     0     0.0   696.4    0.00 
 177   20:50   0.00   50.3    51    0.0     0     0.0   696.5    0.00 
 177   21:00   0.00   50.0    52    0.1    67     2.4   696.7    0.00 
 177   21:10   0.00   50.1    52    0.4    62     1.8   696.8    0.00 
 177   21:20   0.00   49.7    52    0.1    98     1.8   696.9    0.00 
 177   21:30   0.00   48.3    60    0.2    90     1.2   696.9    0.00 
 177   21:40   0.00   47.5    63    0.5   104     1.8   697.0    0.00 
 177   21:50   0.00   49.0    56    1.6   106     3.6   697.0    0.00 
 177   22:00   0.00   50.6    50    2.4   105     6.6   696.9    0.00 
 177   22:10   0.00   51.6    47    3.4   102     6.6   696.9    0.00 
 177   22:20   0.00   52.8    46    4.2    97    10.2   696.8    0.00 
 177   22:30   0.00   53.3    48    5.4   100    10.8   696.7    0.00 
 177   22:40   0.00   51.8    53    6.1   101    12.5   696.7    0.00 
 177   22:50   0.00   51.2    55    5.9   102    10.8   696.7    0.00 
 177   23:00   0.00   51.5    55    6.0   106    13.1   696.8    0.00 
 177   23:10   0.00   48.9    66    7.0   110    11.9   696.9    0.00 
 177   23:20   0.00   48.9    62    7.0   102    15.5   696.7    0.00 
 177   23:30   0.00   49.8    59    7.5   101    13.7   696.6    0.00 
 177   23:40   0.00   50.4    59    7.8   102    14.3   696.6    0.00 
 177   23:50   0.00   50.3    60    6.9   100    13.1   696.4    0.00 
 178    0:00   0.00   50.3    60    9.5   105    19.1   696.3    0.00 
 178    0:10   0.00   49.9    61    8.2   104    17.3   696.2    0.00 
 178    0:20   0.00   49.6    62    8.0   108    14.9   696.1    0.00 
 178    0:30   0.00   49.5    62    9.2   109    18.5   696.0    0.00 
 178    0:40   0.00   49.4    62    9.1   112    16.7   695.9    0.00 
 178    0:50   0.00   49.3    62   10.1   108    17.3   695.8    0.00 
 178    1:00   0.00   49.3    61    8.8   107    20.3   695.8    0.00 
 178    1:10   0.00   49.3    61    8.5   103    20.3   695.7    0.00 
 178    1:20   0.00   49.3    61    8.4   106    16.7   695.7    0.00 
 178    1:30   0.00   49.5    61    8.9   104    17.9   695.8    0.00 
 178    1:40   0.00   49.5    61    7.3   106    21.5   695.7    0.00 
 178    1:50   0.00   49.7    61    8.4   106    17.9   695.7    0.00 
 178    2:00   0.00   49.7    60    8.6   106    16.7   695.7    0.00 
 178    2:10   0.00   49.5    62    7.3   105    13.7   695.7    0.00 
 178    2:20   0.00   49.2    62    7.6   108    16.7   695.6    0.00 
 178    2:30   0.00   49.1    63    7.3   104    15.5   695.7    0.00 
 178    2:40   0.00   50.0    60    5.9    97    13.1   695.7    0.00 
 178    2:50   0.00   51.4    56    4.6    92     9.0   695.7    0.00 
 178    3:00   0.00   52.0    53    4.7   109    10.2   695.7    0.00 
 178    3:10   0.00   52.4    53    4.8   109    14.3   695.7    0.00 
 178    3:20   0.00   52.8    52    5.0   124     9.6   695.7    0.00 
 178    3:30   0.00   52.7    53    4.4   104     9.0   695.6    0.00 
 178    3:40   0.00   52.7    52    4.7   105    11.3   695.6    0.00 
 178    3:50   0.00   52.8    52    5.0   108    10.2   695.5    0.00 
 178    4:00   0.00   52.6    52    5.7   105    10.8   695.5    0.00 
 178    4:10   0.00   52.3    53    6.1   107    12.5   695.4    0.00 
 178    4:20   0.00   52.4    53    6.4   104    11.3   695.4    0.00 
 178    4:30   0.00   52.1    54    6.3   100    11.3   695.4    0.00 
 178    4:40   0.00   51.8    55    6.4   104    11.3   695.3    0.00 
 178    4:50   0.00   51.6    56    5.5   100     9.6   695.4    0.00 
 178    5:00   0.01   51.2    57    6.1   105    12.5   695.4    0.00 
 178    5:10   0.01   51.2    57    5.4   111    11.9   695.5    0.00 
 178    5:20   0.02   51.2    56    5.5   118    14.3   695.5    0.00 
 178    5:30   0.02   51.8    55    5.8   120    13.7   695.6    0.00 
 178    5:40   0.03   51.5    56    5.7   115    10.8   695.5    0.00 
 178    5:50   0.03   51.7    55    5.1   116    10.8   695.5    0.00 
 178    6:00   0.03   52.1    53    4.7   115    10.8   695.5    0.00 
 178    6:10   0.11   52.4    53    5.0   130    12.5   695.6    0.00 
 178    6:20   0.21   53.7    52    5.5   130    11.9   695.6    0.00 

Return to Redondo, Valles Caldera graphs page.


Western Regional Climate Center,wrcc@dri.edu